Terminal Aerodrome Forecast
Issued by NWS

Home | Current Version | Previous Version | Text Only | Print | Product List | Glossary On
Versions: 1 2 3 4 5 6 7 8 9 10 11 12 13 14 15 16 17 18 19
000
FTUS44 KLZK 241300 AAA
TAFHRO
TAF AMD
KHRO 241340Z 2414/2512 15012G20KT P6SM VCSH OVC060CB
      TEMPO 2415/2419 5SM -TSRA BR OVC030CB
     FM241900 19014G24KT 6SM -SHRA VCTS OVC025CB
     FM250300 28008KT P6SM SCT040=

USA.gov is the U.S. government's official web portal to all federal, state and local government web resources and services.